• Join FlightAware (Why Join?)
  • Login
  • US Flag 
07:30AM EST


 

Airport Tracker/Info


-or-


 

Live Flight TrackerFlight Track Log ✈ SKW6345 ✈ 21-Jun-2013 ✈ KLAX - KSAN

Flight Track Log - Related Links

Times and Time Zones

All times are in EDT time to prevent confusion due to time zone crossing. See the SKW6345 flight status page for this flight to view local times or setup timezone preferences in your user account.

Time Position Orientation Groundspeed Altitude Reporting Facility
EDT Latitude Longitude Course Direction KTS MPH feet Rate Location/Type
08:35PM 33.9000 -118.4500 195° South 181 208 3,300  Level Southern California TRACON
08:36PM 33.8500 -118.4667 195° South 184 212 5,100 1,560 Climbing Southern California TRACON
08:37PM 33.8203 -118.4656 178° South 182 209 5,900 1,620 Climbing Los Angeles Center
08:38PM 33.7564 -118.4736 186° South 196 226 7,800 1,500 Climbing Los Angeles Center
08:39PM 33.7058 -118.4436 154° Southeast 220 253 9,100 600 Climbing Los Angeles Center
08:40PM 33.6686 -118.3772 124° Southeast 240 276 9,100  Level Los Angeles Center
08:41PM 33.6300 -118.3050 123° Southeast 256 295 9,100  Level Los Angeles Center
08:42PM 33.5806 -118.2161 124° Southeast 267 307 9,100  Level Los Angeles Center
08:43PM 33.5392 -118.1411 123° Southeast 270 311 9,200  Climbing Los Angeles Center
08:44PM 33.4964 -118.0656 124° Southeast 273 314 9,200 -60 Level Los Angeles Center
08:45PM 33.4553 -117.9897 123° Southeast 272 313 9,100 -60 Descending Los Angeles Center
08:46PM 33.4125 -117.9142 124° Southeast 274 315 9,100  Level Los Angeles Center
08:47PM 33.3706 -117.8381 123° Southeast 274 315 9,100  Level Los Angeles Center
08:48PM 33.3192 -117.7469 124° Southeast 275 316 9,200 60 Climbing Los Angeles Center
08:49PM 33.2769 -117.6711 124° Southeast 275 316 9,300  Climbing Los Angeles Center
08:50PM 33.2333 -117.6000 126° Southeast 277 319 9,200 -120 Descending Southern California TRACON
08:51PM 33.1833 -117.5167 126° Southeast 280 322 9,100 -300 Descending Southern California TRACON
08:52PM 33.1167 -117.4667 148° Southeast 280 322 8,700 -600 Descending Southern California TRACON
08:53PM 33.0500 -117.4167 148° Southeast 285 328 8,000 -660 Descending Southern California TRACON
08:54PM 32.9728 -117.3658 151° Southeast 286 329 7,300 -420 Descending Los Angeles Center
08:55PM 32.9169 -117.3064 138° Southeast 273 314 7,200 -120 Descending Los Angeles Center
08:56PM 32.8833 -117.2500 125° Southeast 256 295 7,100 -660 Descending Southern California TRACON
08:57PM 32.8167 -117.1833 140° Southeast 261 300 6,000 -840 Descending Southern California TRACON
08:59PM 32.7847 -117.1156 119° Southeast 213 245 5,200 -420 Descending Los Angeles Center
08:59PM 32.7833 -117.0667 92° East 181 208 5,200  Level Southern California TRACON
09:00PM 32.7667 -117.0167 112° Southeast 189 217 5,200  Level Southern California TRACON
09:01PM 32.7500 -116.9500 107° East 193 222 5,200 -60 Level Southern California TRACON
09:02PM 32.7167 -116.9667 203° Southwest 205 236 5,100 -900 Descending Southern California TRACON
09:03PM 32.7000 -117.0500 257° West 218 251 3,500 -1,560 Descending Southern California TRACON
09:04PM 32.7167 -117.1167 287° West 199 229 1,900 -1,320 Descending Southern California TRACON
09:05PM 32.7333 -117.1667 292° West 133 153 900 -1,020 Descending Southern California TRACON